sensor_id;sensor_type;location;lat;lon;timestamp;P1;durP1;ratioP1;P2;durP2;ratioP2
16346;SDS011;8283;48.504;13.734;2023-04-03T00:02:41;1.88;;;1.33;;
16346;SDS011;8283;48.504;13.734;2023-04-03T00:05:25;1.30;;;1.10;;
16346;SDS011;8283;48.504;13.734;2023-04-03T00:08:10;1.38;;;1.15;;
16346;SDS011;8283;48.504;13.734;2023-04-03T00:10:54;0.88;;;0.88;;
16346;SDS011;8283;48.504;13.734;2023-04-03T00:13:39;1.23;;;0.93;;
16346;SDS011;8283;48.504;13.734;2023-04-03T00:16:23;1.17;;;1.08;;
16346;SDS011;8283;48.504;13.734;2023-04-03T00:19:08;1.33;;;1.05;;
16346;SDS011;8283;48.504;13.734;2023-04-03T00:21:52;1.48;;;1.23;;
16346;SDS011;8283;48.504;13.734;2023-04-03T00:24:37;2.05;;;1.55;;
16346;SDS011;8283;48.504;13.734;2023-04-03T00:27:21;1.63;;;1.40;;
16346;SDS011;8283;48.504;13.734;2023-04-03T00:30:07;2.22;;;1.40;;
16346;SDS011;8283;48.504;13.734;2023-04-03T00:32:53;1.33;;;1.10;;
16346;SDS011;8283;48.504;13.734;2023-04-03T00:35:38;1.30;;;1.05;;
16346;SDS011;8283;48.504;13.734;2023-04-03T00:38:22;1.10;;;1.00;;
16346;SDS011;8283;48.504;13.734;2023-04-03T00:41:07;1.75;;;0.90;;
16346;SDS011;8283;48.504;13.734;2023-04-03T00:43:51;1.13;;;1.02;;
16346;SDS011;8283;48.504;13.734;2023-04-03T00:46:36;0.82;;;0.82;;
16346;SDS011;8283;48.504;13.734;2023-04-03T00:49:21;1.10;;;0.95;;
16346;SDS011;8283;48.504;13.734;2023-04-03T00:52:06;1.30;;;1.20;;
16346;SDS011;8283;48.504;13.734;2023-04-03T00:54:54;1.20;;;1.10;;
16346;SDS011;8283;48.504;13.734;2023-04-03T00:57:43;2.80;;;1.10;;
16346;SDS011;8283;48.504;13.734;2023-04-03T01:00:29;1.42;;;1.02;;
16346;SDS011;8283;48.504;13.734;2023-04-03T01:03:14;1.75;;;1.10;;
16346;SDS011;8283;48.504;13.734;2023-04-03T01:05:58;1.98;;;1.20;;
16346;SDS011;8283;48.504;13.734;2023-04-03T01:08:43;1.63;;;1.00;;
16346;SDS011;8283;48.504;13.734;2023-04-03T01:11:30;0.88;;;0.82;;
16346;SDS011;8283;48.504;13.734;2023-04-03T01:14:15;1.35;;;0.80;;
16346;SDS011;8283;48.504;13.734;2023-04-03T01:16:59;1.00;;;0.90;;
16346;SDS011;8283;48.504;13.734;2023-04-03T01:19:44;1.33;;;1.20;;
16346;SDS011;8283;48.504;13.734;2023-04-03T01:22:48;1.65;;;0.95;;
16346;SDS011;8283;48.504;13.734;2023-04-03T01:25:52;1.00;;;0.90;;
16346;SDS011;8283;48.504;13.734;2023-04-03T01:28:39;1.30;;;0.90;;
16346;SDS011;8283;48.504;13.734;2023-04-03T01:31:25;1.10;;;0.93;;
16346;SDS011;8283;48.504;13.734;2023-04-03T01:34:19;1.42;;;1.00;;
16346;SDS011;8283;48.504;13.734;2023-04-03T01:37:03;1.33;;;1.13;;
16346;SDS011;8283;48.504;13.734;2023-04-03T01:39:48;1.60;;;1.20;;
16346;SDS011;8283;48.504;13.734;2023-04-03T01:42:32;1.35;;;1.25;;
16346;SDS011;8283;48.504;13.734;2023-04-03T01:45:17;1.35;;;1.00;;
16346;SDS011;8283;48.504;13.734;2023-04-03T01:48:01;1.85;;;1.10;;
16346;SDS011;8283;48.504;13.734;2023-04-03T01:50:45;1.02;;;0.93;;
16346;SDS011;8283;48.504;13.734;2023-04-03T01:53:30;3.65;;;1.10;;
16346;SDS011;8283;48.504;13.734;2023-04-03T01:56:14;1.20;;;1.10;;
16346;SDS011;8283;48.504;13.734;2023-04-03T01:58:59;1.48;;;1.10;;
16346;SDS011;8283;48.504;13.734;2023-04-03T02:01:43;1.02;;;0.93;;
16346;SDS011;8283;48.504;13.734;2023-04-03T02:04:29;1.20;;;0.90;;
16346;SDS011;8283;48.504;13.734;2023-04-03T02:07:14;1.50;;;1.20;;
16346;SDS011;8283;48.504;13.734;2023-04-03T02:09:58;1.15;;;1.00;;
16346;SDS011;8283;48.504;13.734;2023-04-03T02:12:43;1.23;;;1.00;;
16346;SDS011;8283;48.504;13.734;2023-04-03T02:15:27;1.55;;;1.00;;
16346;SDS011;8283;48.504;13.734;2023-04-03T02:18:11;1.08;;;0.95;;
16346;SDS011;8283;48.504;13.734;2023-04-03T02:20:56;2.17;;;1.10;;
16346;SDS011;8283;48.504;13.734;2023-04-03T02:23:40;1.10;;;0.70;;
16346;SDS011;8283;48.504;13.734;2023-04-03T02:26:24;1.23;;;0.90;;
16346;SDS011;8283;48.504;13.734;2023-04-03T02:29:09;1.27;;;0.90;;
16346;SDS011;8283;48.504;13.734;2023-04-03T02:31:54;1.27;;;0.90;;
16346;SDS011;8283;48.504;13.734;2023-04-03T02:34:40;1.65;;;1.00;;
16346;SDS011;8283;48.504;13.734;2023-04-03T02:37:26;1.15;;;1.05;;
16346;SDS011;8283;48.504;13.734;2023-04-03T02:40:12;1.58;;;1.23;;
16346;SDS011;8283;48.504;13.734;2023-04-03T02:42:56;2.00;;;0.90;;
16346;SDS011;8283;48.504;13.734;2023-04-03T02:45:42;1.02;;;0.85;;
16346;SDS011;8283;48.504;13.734;2023-04-03T02:48:27;1.13;;;1.02;;
16346;SDS011;8283;48.504;13.734;2023-04-03T02:51:12;0.93;;;0.90;;
16346;SDS011;8283;48.504;13.734;2023-04-03T02:53:56;1.80;;;1.10;;
16346;SDS011;8283;48.504;13.734;2023-04-03T02:56:45;2.03;;;0.77;;
16346;SDS011;8283;48.504;13.734;2023-04-03T02:59:29;1.33;;;0.93;;
16346;SDS011;8283;48.504;13.734;2023-04-03T03:02:14;1.45;;;0.85;;
16346;SDS011;8283;48.504;13.734;2023-04-03T03:04:58;1.00;;;0.90;;
16346;SDS011;8283;48.504;13.734;2023-04-03T03:07:42;1.10;;;0.90;;
16346;SDS011;8283;48.504;13.734;2023-04-03T03:10:27;1.30;;;1.20;;
16346;SDS011;8283;48.504;13.734;2023-04-03T03:13:11;1.17;;;1.00;;
16346;SDS011;8283;48.504;13.734;2023-04-03T03:15:55;2.28;;;1.20;;
16346;SDS011;8283;48.504;13.734;2023-04-03T03:18:40;1.83;;;1.23;;
16346;SDS011;8283;48.504;13.734;2023-04-03T03:21:25;0.82;;;0.82;;
16346;SDS011;8283;48.504;13.734;2023-04-03T03:24:10;1.33;;;1.15;;
16346;SDS011;8283;48.504;13.734;2023-04-03T03:26:55;1.48;;;1.10;;
16346;SDS011;8283;48.504;13.734;2023-04-03T03:29:40;1.83;;;1.30;;
16346;SDS011;8283;48.504;13.734;2023-04-03T03:32:24;1.80;;;1.40;;
16346;SDS011;8283;48.504;13.734;2023-04-03T03:35:08;1.63;;;1.30;;
16346;SDS011;8283;48.504;13.734;2023-04-03T03:37:53;1.65;;;1.30;;
16346;SDS011;8283;48.504;13.734;2023-04-03T03:40:38;2.00;;;1.40;;
16346;SDS011;8283;48.504;13.734;2023-04-03T03:43:22;2.90;;;1.40;;
16346;SDS011;8283;48.504;13.734;2023-04-03T03:46:08;1.48;;;1.38;;
16346;SDS011;8283;48.504;13.734;2023-04-03T03:48:53;1.10;;;1.00;;
16346;SDS011;8283;48.504;13.734;2023-04-03T03:51:40;1.25;;;0.98;;
16346;SDS011;8283;48.504;13.734;2023-04-03T03:54:25;1.60;;;1.30;;
16346;SDS011;8283;48.504;13.734;2023-04-03T03:57:09;1.10;;;1.00;;
16346;SDS011;8283;48.504;13.734;2023-04-03T03:59:54;1.35;;;1.17;;
16346;SDS011;8283;48.504;13.734;2023-04-03T04:02:39;1.40;;;1.10;;
16346;SDS011;8283;48.504;13.734;2023-04-03T04:05:23;1.25;;;1.15;;
16346;SDS011;8283;48.504;13.734;2023-04-03T04:08:09;2.88;;;1.70;;
16346;SDS011;8283;48.504;13.734;2023-04-03T04:10:54;2.67;;;1.27;;
16346;SDS011;8283;48.504;13.734;2023-04-03T04:13:38;3.28;;;1.30;;
16346;SDS011;8283;48.504;13.734;2023-04-03T04:16:23;1.85;;;1.10;;
16346;SDS011;8283;48.504;13.734;2023-04-03T04:19:08;1.42;;;1.05;;
16346;SDS011;8283;48.504;13.734;2023-04-03T04:21:55;2.65;;;1.00;;
16346;SDS011;8283;48.504;13.734;2023-04-03T04:24:39;1.88;;;1.20;;
16346;SDS011;8283;48.504;13.734;2023-04-03T04:27:25;1.67;;;1.20;;
16346;SDS011;8283;48.504;13.734;2023-04-03T04:30:10;1.70;;;1.20;;
16346;SDS011;8283;48.504;13.734;2023-04-03T04:32:55;3.95;;;1.50;;
16346;SDS011;8283;48.504;13.734;2023-04-03T04:35:41;1.90;;;1.08;;
16346;SDS011;8283;48.504;13.734;2023-04-03T04:38:27;0.80;;;0.80;;
16346;SDS011;8283;48.504;13.734;2023-04-03T04:41:12;2.47;;;1.33;;
16346;SDS011;8283;48.504;13.734;2023-04-03T04:43:56;1.60;;;1.23;;
16346;SDS011;8283;48.504;13.734;2023-04-03T04:46:42;1.55;;;1.38;;
16346;SDS011;8283;48.504;13.734;2023-04-03T04:49:27;2.30;;;1.17;;
16346;SDS011;8283;48.504;13.734;2023-04-03T04:52:12;1.23;;;1.13;;
16346;SDS011;8283;48.504;13.734;2023-04-03T04:54:57;1.98;;;1.33;;
16346;SDS011;8283;48.504;13.734;2023-04-03T04:57:42;1.75;;;1.23;;
16346;SDS011;8283;48.504;13.734;2023-04-03T05:00:26;1.70;;;1.20;;
16346;SDS011;8283;48.504;13.734;2023-04-03T05:03:11;4.70;;;4.05;;
16346;SDS011;8283;48.504;13.734;2023-04-03T05:05:56;1.98;;;1.60;;
16346;SDS011;8283;48.504;13.734;2023-04-03T05:08:40;1.70;;;1.55;;
16346;SDS011;8283;48.504;13.734;2023-04-03T05:11:25;1.92;;;1.40;;
16346;SDS011;8283;48.504;13.734;2023-04-03T05:14:11;1.98;;;1.17;;
16346;SDS011;8283;48.504;13.734;2023-04-03T05:16:57;2.08;;;1.00;;
16346;SDS011;8283;48.504;13.734;2023-04-03T05:19:45;1.17;;;1.08;;
16346;SDS011;8283;48.504;13.734;2023-04-03T05:22:30;1.83;;;1.50;;
16346;SDS011;8283;48.504;13.734;2023-04-03T05:25:20;2.08;;;1.70;;
16346;SDS011;8283;48.504;13.734;2023-04-03T05:28:05;2.45;;;1.80;;
16346;SDS011;8283;48.504;13.734;2023-04-03T05:30:53;2.72;;;1.58;;
16346;SDS011;8283;48.504;13.734;2023-04-03T05:33:40;1.63;;;1.20;;
16346;SDS011;8283;48.504;13.734;2023-04-03T05:36:26;1.25;;;1.02;;
16346;SDS011;8283;48.504;13.734;2023-04-03T05:39:15;1.60;;;1.50;;
16346;SDS011;8283;48.504;13.734;2023-04-03T05:42:02;1.73;;;1.38;;
16346;SDS011;8283;48.504;13.734;2023-04-03T05:44:47;1.60;;;1.50;;
16346;SDS011;8283;48.504;13.734;2023-04-03T05:47:34;1.55;;;1.45;;
16346;SDS011;8283;48.504;13.734;2023-04-03T05:50:18;1.90;;;1.33;;
16346;SDS011;8283;48.504;13.734;2023-04-03T05:53:05;1.70;;;1.27;;
16346;SDS011;8283;48.504;13.734;2023-04-03T05:55:50;1.98;;;1.50;;
16346;SDS011;8283;48.504;13.734;2023-04-03T05:58:35;1.23;;;1.13;;
16346;SDS011;8283;48.504;13.734;2023-04-03T06:01:20;2.35;;;1.15;;
16346;SDS011;8283;48.504;13.734;2023-04-03T06:04:05;2.05;;;1.23;;
16346;SDS011;8283;48.504;13.734;2023-04-03T06:06:54;4.78;;;1.50;;
16346;SDS011;8283;48.504;13.734;2023-04-03T06:09:40;11.38;;;6.72;;
16346;SDS011;8283;48.504;13.734;2023-04-03T06:12:26;34.00;;;19.42;;
16346;SDS011;8283;48.504;13.734;2023-04-03T06:15:12;50.28;;;27.88;;
16346;SDS011;8283;48.504;13.734;2023-04-03T06:17:58;16.15;;;7.63;;
16346;SDS011;8283;48.504;13.734;2023-04-03T06:20:42;16.55;;;7.45;;
16346;SDS011;8283;48.504;13.734;2023-04-03T06:23:27;24.17;;;13.55;;
16346;SDS011;8283;48.504;13.734;2023-04-03T06:26:11;23.30;;;10.32;;
16346;SDS011;8283;48.504;13.734;2023-04-03T06:28:56;15.98;;;8.35;;
16346;SDS011;8283;48.504;13.734;2023-04-03T06:31:40;8.90;;;4.38;;
16346;SDS011;8283;48.504;13.734;2023-04-03T06:34:24;3.40;;;1.90;;
16346;SDS011;8283;48.504;13.734;2023-04-03T06:37:10;2.72;;;1.60;;
16346;SDS011;8283;48.504;13.734;2023-04-03T06:40:06;1.67;;;1.50;;
16346;SDS011;8283;48.504;13.734;2023-04-03T06:42:50;2.25;;;1.50;;
16346;SDS011;8283;48.504;13.734;2023-04-03T06:45:36;2.15;;;1.20;;
16346;SDS011;8283;48.504;13.734;2023-04-03T06:48:21;2.60;;;1.50;;
16346;SDS011;8283;48.504;13.734;2023-04-03T06:51:05;1.77;;;1.48;;
16346;SDS011;8283;48.504;13.734;2023-04-03T06:53:50;1.63;;;1.52;;
16346;SDS011;8283;48.504;13.734;2023-04-03T06:56:36;2.90;;;1.65;;
16346;SDS011;8283;48.504;13.734;2023-04-03T06:59:20;2.85;;;1.83;;
16346;SDS011;8283;48.504;13.734;2023-04-03T07:02:05;3.67;;;1.92;;
16346;SDS011;8283;48.504;13.734;2023-04-03T07:04:49;1.42;;;1.30;;
16346;SDS011;8283;48.504;13.734;2023-04-03T07:07:34;1.70;;;1.30;;
16346;SDS011;8283;48.504;13.734;2023-04-03T07:10:18;1.85;;;1.30;;
16346;SDS011;8283;48.504;13.734;2023-04-03T07:13:02;1.50;;;1.25;;
16346;SDS011;8283;48.504;13.734;2023-04-03T07:15:48;2.75;;;1.48;;
16346;SDS011;8283;48.504;13.734;2023-04-03T07:18:33;2.22;;;1.30;;
16346;SDS011;8283;48.504;13.734;2023-04-03T07:21:17;2.10;;;1.73;;
16346;SDS011;8283;48.504;13.734;2023-04-03T07:24:01;2.63;;;1.80;;
16346;SDS011;8283;48.504;13.734;2023-04-03T07:26:49;3.92;;;1.60;;
16346;SDS011;8283;48.504;13.734;2023-04-03T07:29:34;1.65;;;1.42;;
16346;SDS011;8283;48.504;13.734;2023-04-03T07:32:19;2.15;;;1.42;;
16346;SDS011;8283;48.504;13.734;2023-04-03T07:35:03;3.85;;;1.90;;
16346;SDS011;8283;48.504;13.734;2023-04-03T07:37:48;1.95;;;1.75;;
16346;SDS011;8283;48.504;13.734;2023-04-03T07:40:33;2.05;;;1.52;;
16346;SDS011;8283;48.504;13.734;2023-04-03T07:43:19;2.28;;;1.33;;
16346;SDS011;8283;48.504;13.734;2023-04-03T07:46:04;2.35;;;1.60;;
16346;SDS011;8283;48.504;13.734;2023-04-03T07:48:49;1.40;;;1.30;;
16346;SDS011;8283;48.504;13.734;2023-04-03T07:51:33;3.75;;;1.33;;
16346;SDS011;8283;48.504;13.734;2023-04-03T07:54:18;2.72;;;2.08;;
16346;SDS011;8283;48.504;13.734;2023-04-03T07:57:02;1.67;;;1.10;;
16346;SDS011;8283;48.504;13.734;2023-04-03T07:59:47;1.58;;;1.10;;
16346;SDS011;8283;48.504;13.734;2023-04-03T08:02:31;2.10;;;1.40;;
16346;SDS011;8283;48.504;13.734;2023-04-03T08:05:18;5.47;;;1.55;;
16346;SDS011;8283;48.504;13.734;2023-04-03T08:08:04;2.88;;;0.98;;
16346;SDS011;8283;48.504;13.734;2023-04-03T08:10:52;1.42;;;1.17;;
16346;SDS011;8283;48.504;13.734;2023-04-03T08:13:37;2.75;;;1.00;;
16346;SDS011;8283;48.504;13.734;2023-04-03T08:16:22;3.03;;;1.08;;
16346;SDS011;8283;48.504;13.734;2023-04-03T08:19:10;2.67;;;1.30;;
16346;SDS011;8283;48.504;13.734;2023-04-03T08:21:57;1.63;;;1.20;;
16346;SDS011;8283;48.504;13.734;2023-04-03T08:24:42;1.33;;;1.00;;
16346;SDS011;8283;48.504;13.734;2023-04-03T08:27:27;2.20;;;1.10;;
16346;SDS011;8283;48.504;13.734;2023-04-03T08:30:12;1.67;;;0.93;;
16346;SDS011;8283;48.504;13.734;2023-04-03T08:32:59;1.05;;;0.88;;
16346;SDS011;8283;48.504;13.734;2023-04-03T08:35:45;2.17;;;1.10;;
16346;SDS011;8283;48.504;13.734;2023-04-03T08:38:29;3.17;;;1.23;;
16346;SDS011;8283;48.504;13.734;2023-04-03T08:41:26;2.10;;;0.95;;
16346;SDS011;8283;48.504;13.734;2023-04-03T08:47:45;2.72;;;1.25;;
16346;SDS011;8283;48.504;13.734;2023-04-03T08:50:39;1.38;;;0.95;;
16346;SDS011;8283;48.504;13.734;2023-04-03T08:53:28;1.20;;;0.88;;
16346;SDS011;8283;48.504;13.734;2023-04-03T08:56:16;1.40;;;1.00;;
16346;SDS011;8283;48.504;13.734;2023-04-03T08:59:07;1.88;;;0.95;;
16346;SDS011;8283;48.504;13.734;2023-04-03T09:01:57;1.42;;;0.85;;
16346;SDS011;8283;48.504;13.734;2023-04-03T09:04:45;1.27;;;1.00;;
16346;SDS011;8283;48.504;13.734;2023-04-03T09:07:36;1.65;;;1.00;;
16346;SDS011;8283;48.504;13.734;2023-04-03T09:10:32;2.17;;;0.80;;
16346;SDS011;8283;48.504;13.734;2023-04-03T09:13:30;1.23;;;0.63;;
16346;SDS011;8283;48.504;13.734;2023-04-03T09:22:38;1.05;;;0.95;;
16346;SDS011;8283;48.504;13.734;2023-04-03T09:25:31;1.15;;;0.70;;
16346;SDS011;8283;48.504;13.734;2023-04-03T09:28:18;2.15;;;0.70;;
16346;SDS011;8283;48.504;13.734;2023-04-03T09:31:05;1.40;;;0.75;;
16346;SDS011;8283;48.504;13.734;2023-04-03T09:34:02;1.15;;;0.90;;
16346;SDS011;8283;48.504;13.734;2023-04-03T09:36:52;1.67;;;0.60;;
16346;SDS011;8283;48.504;13.734;2023-04-03T09:39:49;3.60;;;0.80;;
16346;SDS011;8283;48.504;13.734;2023-04-03T09:42:38;1.80;;;0.75;;
16346;SDS011;8283;48.504;13.734;2023-04-03T09:45:29;1.40;;;0.90;;
16346;SDS011;8283;48.504;13.734;2023-04-03T09:48:17;2.60;;;0.80;;
16346;SDS011;8283;48.504;13.734;2023-04-03T09:51:03;1.30;;;0.80;;
16346;SDS011;8283;48.504;13.734;2023-04-03T09:53:48;1.27;;;0.90;;
16346;SDS011;8283;48.504;13.734;2023-04-03T09:56:32;1.38;;;0.70;;
16346;SDS011;8283;48.504;13.734;2023-04-03T09:59:18;1.33;;;1.00;;
16346;SDS011;8283;48.504;13.734;2023-04-03T10:02:28;1.58;;;0.80;;
16346;SDS011;8283;48.504;13.734;2023-04-03T10:08:33;1.42;;;0.70;;
16346;SDS011;8283;48.504;13.734;2023-04-03T10:11:19;1.80;;;0.90;;
16346;SDS011;8283;48.504;13.734;2023-04-03T10:14:03;1.95;;;1.00;;
16346;SDS011;8283;48.504;13.734;2023-04-03T10:17:32;1.85;;;0.90;;
16346;SDS011;8283;48.504;13.734;2023-04-03T10:19:58;0.85;;;0.60;;
16346;SDS011;8283;48.504;13.734;2023-04-03T10:29:16;2.22;;;0.93;;
16346;SDS011;8283;48.504;13.734;2023-04-03T10:47:39;1.38;;;0.90;;
16346;SDS011;8283;48.504;13.734;2023-04-03T10:50:43;0.98;;;0.60;;
16346;SDS011;8283;48.504;13.734;2023-04-03T10:53:39;1.02;;;0.70;;
16346;SDS011;8283;48.504;13.734;2023-04-03T10:56:42;1.25;;;0.70;;
16346;SDS011;8283;48.504;13.734;2023-04-03T10:59:48;0.90;;;0.70;;
16346;SDS011;8283;48.504;13.734;2023-04-03T11:02:37;3.45;;;1.20;;
16346;SDS011;8283;48.504;13.734;2023-04-03T11:11:36;1.65;;;1.08;;
16346;SDS011;8283;48.504;13.734;2023-04-03T11:14:27;2.05;;;1.33;;
16346;SDS011;8283;48.504;13.734;2023-04-03T11:23:03;1.90;;;1.23;;
16346;SDS011;8283;48.504;13.734;2023-04-03T11:26:08;1.90;;;1.25;;
16346;SDS011;8283;48.504;13.734;2023-04-03T11:28:59;2.50;;;1.13;;
16346;SDS011;8283;48.504;13.734;2023-04-03T11:34:35;1.40;;;1.10;;
16346;SDS011;8283;48.504;13.734;2023-04-03T11:37:41;1.52;;;1.02;;
16346;SDS011;8283;48.504;13.734;2023-04-03T11:40:32;1.63;;;0.90;;
16346;SDS011;8283;48.504;13.734;2023-04-03T11:46:09;2.22;;;1.48;;
16346;SDS011;8283;48.504;13.734;2023-04-03T11:48:54;2.15;;;1.20;;
16346;SDS011;8283;48.504;13.734;2023-04-03T11:51:40;2.22;;;1.30;;
16346;SDS011;8283;48.504;13.734;2023-04-03T11:54:36;1.92;;;1.30;;
16346;SDS011;8283;48.504;13.734;2023-04-03T11:57:45;1.85;;;1.50;;
16346;SDS011;8283;48.504;13.734;2023-04-03T12:15:57;1.17;;;1.00;;
16346;SDS011;8283;48.504;13.734;2023-04-03T12:24:41;1.70;;;0.95;;
16346;SDS011;8283;48.504;13.734;2023-04-03T12:27:28;1.48;;;0.90;;
16346;SDS011;8283;48.504;13.734;2023-04-03T12:30:22;1.02;;;0.88;;
16346;SDS011;8283;48.504;13.734;2023-04-03T12:36:38;2.15;;;1.08;;
16346;SDS011;8283;48.504;13.734;2023-04-03T12:43:02;3.30;;;1.70;;
16346;SDS011;8283;48.504;13.734;2023-04-03T12:45:59;1.35;;;1.00;;
16346;SDS011;8283;48.504;13.734;2023-04-03T12:48:53;2.20;;;1.42;;
16346;SDS011;8283;48.504;13.734;2023-04-03T12:51:43;2.10;;;1.30;;
16346;SDS011;8283;48.504;13.734;2023-04-03T12:54:36;1.95;;;1.40;;
16346;SDS011;8283;48.504;13.734;2023-04-03T12:57:25;2.13;;;1.40;;
16346;SDS011;8283;48.504;13.734;2023-04-03T13:00:31;1.70;;;1.20;;
16346;SDS011;8283;48.504;13.734;2023-04-03T13:03:23;2.13;;;1.45;;
16346;SDS011;8283;48.504;13.734;2023-04-03T13:06:10;1.75;;;1.15;;
16346;SDS011;8283;48.504;13.734;2023-04-03T13:09:01;2.10;;;1.65;;
16346;SDS011;8283;48.504;13.734;2023-04-03T13:11:46;3.70;;;1.40;;
16346;SDS011;8283;48.504;13.734;2023-04-03T13:14:31;1.58;;;1.00;;
16346;SDS011;8283;48.504;13.734;2023-04-03T13:17:17;1.88;;;0.77;;
16346;SDS011;8283;48.504;13.734;2023-04-03T13:20:16;1.75;;;1.30;;
16346;SDS011;8283;48.504;13.734;2023-04-03T13:23:07;1.90;;;1.48;;
16346;SDS011;8283;48.504;13.734;2023-04-03T13:25:53;2.05;;;1.40;;
16346;SDS011;8283;48.504;13.734;2023-04-03T13:28:39;1.73;;;1.10;;
16346;SDS011;8283;48.504;13.734;2023-04-03T13:31:25;1.80;;;1.35;;
16346;SDS011;8283;48.504;13.734;2023-04-03T13:34:15;1.67;;;1.30;;
16346;SDS011;8283;48.504;13.734;2023-04-03T13:37:03;2.75;;;1.60;;
16346;SDS011;8283;48.504;13.734;2023-04-03T13:39:57;1.42;;;1.13;;
16346;SDS011;8283;48.504;13.734;2023-04-03T13:42:41;1.60;;;0.98;;
16346;SDS011;8283;48.504;13.734;2023-04-03T13:45:29;2.97;;;1.00;;
16346;SDS011;8283;48.504;13.734;2023-04-03T13:48:19;1.58;;;1.30;;
16346;SDS011;8283;48.504;13.734;2023-04-03T13:51:05;3.72;;;1.75;;
16346;SDS011;8283;48.504;13.734;2023-04-03T13:53:52;2.20;;;1.50;;
16346;SDS011;8283;48.504;13.734;2023-04-03T13:56:39;1.88;;;1.20;;
16346;SDS011;8283;48.504;13.734;2023-04-03T14:05:13;2.20;;;1.58;;
16346;SDS011;8283;48.504;13.734;2023-04-03T14:08:00;1.58;;;1.15;;
16346;SDS011;8283;48.504;13.734;2023-04-03T14:10:45;1.60;;;1.20;;
16346;SDS011;8283;48.504;13.734;2023-04-03T14:13:31;3.78;;;1.60;;
16346;SDS011;8283;48.504;13.734;2023-04-03T14:16:23;3.35;;;2.00;;
16346;SDS011;8283;48.504;13.734;2023-04-03T14:19:19;1.65;;;1.33;;
16346;SDS011;8283;48.504;13.734;2023-04-03T14:25:09;1.70;;;1.30;;
16346;SDS011;8283;48.504;13.734;2023-04-03T14:27:54;2.70;;;1.42;;
16346;SDS011;8283;48.504;13.734;2023-04-03T14:30:39;2.97;;;1.40;;
16346;SDS011;8283;48.504;13.734;2023-04-03T14:33:23;2.00;;;1.13;;
16346;SDS011;8283;48.504;13.734;2023-04-03T14:36:25;1.48;;;1.30;;
16346;SDS011;8283;48.504;13.734;2023-04-03T14:39:15;2.38;;;1.25;;
16346;SDS011;8283;48.504;13.734;2023-04-03T14:42:01;2.08;;;1.33;;
16346;SDS011;8283;48.504;13.734;2023-04-03T14:44:45;2.03;;;1.38;;
16346;SDS011;8283;48.504;13.734;2023-04-03T14:47:30;2.40;;;1.60;;
16346;SDS011;8283;48.504;13.734;2023-04-03T14:50:15;2.28;;;1.38;;
16346;SDS011;8283;48.504;13.734;2023-04-03T14:53:06;1.73;;;1.40;;
16346;SDS011;8283;48.504;13.734;2023-04-03T14:55:51;1.95;;;1.20;;
16346;SDS011;8283;48.504;13.734;2023-04-03T14:58:36;1.92;;;1.58;;
16346;SDS011;8283;48.504;13.734;2023-04-03T15:01:21;4.95;;;1.50;;
16346;SDS011;8283;48.504;13.734;2023-04-03T15:04:12;2.28;;;1.45;;
16346;SDS011;8283;48.504;13.734;2023-04-03T15:07:01;2.05;;;1.50;;
16346;SDS011;8283;48.504;13.734;2023-04-03T15:09:45;3.03;;;1.73;;
16346;SDS011;8283;48.504;13.734;2023-04-03T15:12:29;2.35;;;1.60;;
16346;SDS011;8283;48.504;13.734;2023-04-03T15:15:14;1.83;;;1.30;;
16346;SDS011;8283;48.504;13.734;2023-04-03T15:17:59;3.20;;;1.65;;
16346;SDS011;8283;48.504;13.734;2023-04-03T15:20:44;2.90;;;2.08;;
16346;SDS011;8283;48.504;13.734;2023-04-03T15:23:28;2.28;;;1.48;;
16346;SDS011;8283;48.504;13.734;2023-04-03T15:26:13;3.50;;;1.50;;
16346;SDS011;8283;48.504;13.734;2023-04-03T15:28:58;3.00;;;1.48;;
16346;SDS011;8283;48.504;13.734;2023-04-03T15:31:42;3.22;;;1.80;;
16346;SDS011;8283;48.504;13.734;2023-04-03T15:34:27;2.72;;;1.63;;
16346;SDS011;8283;48.504;13.734;2023-04-03T15:37:12;4.57;;;1.80;;
16346;SDS011;8283;48.504;13.734;2023-04-03T15:39:56;2.42;;;1.27;;
16346;SDS011;8283;48.504;13.734;2023-04-03T15:42:40;1.80;;;1.40;;
16346;SDS011;8283;48.504;13.734;2023-04-03T15:45:26;3.30;;;1.50;;
16346;SDS011;8283;48.504;13.734;2023-04-03T15:48:13;2.50;;;1.60;;
16346;SDS011;8283;48.504;13.734;2023-04-03T15:50:58;1.70;;;1.30;;
16346;SDS011;8283;48.504;13.734;2023-04-03T15:53:43;2.22;;;1.17;;
16346;SDS011;8283;48.504;13.734;2023-04-03T15:56:28;3.30;;;1.50;;
16346;SDS011;8283;48.504;13.734;2023-04-03T15:59:12;1.48;;;1.23;;
16346;SDS011;8283;48.504;13.734;2023-04-03T16:01:56;2.97;;;1.60;;
16346;SDS011;8283;48.504;13.734;2023-04-03T16:04:42;3.53;;;1.73;;
16346;SDS011;8283;48.504;13.734;2023-04-03T16:07:27;1.98;;;1.48;;
16346;SDS011;8283;48.504;13.734;2023-04-03T16:10:11;2.55;;;1.50;;
16346;SDS011;8283;48.504;13.734;2023-04-03T16:12:59;3.35;;;1.77;;
16346;SDS011;8283;48.504;13.734;2023-04-03T16:15:43;1.92;;;1.30;;
16346;SDS011;8283;48.504;13.734;2023-04-03T16:18:28;2.35;;;1.27;;
16346;SDS011;8283;48.504;13.734;2023-04-03T16:21:13;2.60;;;1.40;;
16346;SDS011;8283;48.504;13.734;2023-04-03T16:23:59;2.33;;;1.30;;
16346;SDS011;8283;48.504;13.734;2023-04-03T16:26:45;5.63;;;1.90;;
16346;SDS011;8283;48.504;13.734;2023-04-03T16:29:29;2.97;;;1.30;;
16346;SDS011;8283;48.504;13.734;2023-04-03T16:32:13;2.50;;;1.40;;
16346;SDS011;8283;48.504;13.734;2023-04-03T16:34:58;3.08;;;1.55;;
16346;SDS011;8283;48.504;13.734;2023-04-03T16:37:43;3.65;;;1.50;;
16346;SDS011;8283;48.504;13.734;2023-04-03T16:40:27;3.13;;;1.73;;
16346;SDS011;8283;48.504;13.734;2023-04-03T16:43:11;2.20;;;1.35;;
16346;SDS011;8283;48.504;13.734;2023-04-03T16:45:56;1.52;;;1.35;;
16346;SDS011;8283;48.504;13.734;2023-04-03T16:48:41;2.70;;;1.90;;
16346;SDS011;8283;48.504;13.734;2023-04-03T16:51:25;3.13;;;1.80;;
16346;SDS011;8283;48.504;13.734;2023-04-03T16:54:10;2.25;;;1.75;;
16346;SDS011;8283;48.504;13.734;2023-04-03T16:56:57;2.35;;;1.63;;
16346;SDS011;8283;48.504;13.734;2023-04-03T16:59:42;2.30;;;1.55;;
16346;SDS011;8283;48.504;13.734;2023-04-03T17:02:26;3.15;;;1.42;;
16346;SDS011;8283;48.504;13.734;2023-04-03T17:05:11;2.20;;;1.50;;
16346;SDS011;8283;48.504;13.734;2023-04-03T17:07:55;2.88;;;1.50;;
16346;SDS011;8283;48.504;13.734;2023-04-03T17:10:39;2.67;;;1.60;;
16346;SDS011;8283;48.504;13.734;2023-04-03T17:13:24;3.60;;;2.60;;
16346;SDS011;8283;48.504;13.734;2023-04-03T17:16:14;3.92;;;2.50;;
16346;SDS011;8283;48.504;13.734;2023-04-03T17:19:00;1.92;;;1.73;;
16346;SDS011;8283;48.504;13.734;2023-04-03T17:21:44;3.50;;;1.63;;
16346;SDS011;8283;48.504;13.734;2023-04-03T17:24:29;3.47;;;1.60;;
16346;SDS011;8283;48.504;13.734;2023-04-03T17:27:13;3.45;;;1.70;;
16346;SDS011;8283;48.504;13.734;2023-04-03T17:29:58;3.78;;;1.63;;
16346;SDS011;8283;48.504;13.734;2023-04-03T17:32:42;3.00;;;1.63;;
16346;SDS011;8283;48.504;13.734;2023-04-03T17:35:27;2.00;;;1.50;;
16346;SDS011;8283;48.504;13.734;2023-04-03T17:38:11;2.33;;;1.55;;
16346;SDS011;8283;48.504;13.734;2023-04-03T17:41:03;2.13;;;1.92;;
16346;SDS011;8283;48.504;13.734;2023-04-03T17:43:50;4.13;;;1.70;;
16346;SDS011;8283;48.504;13.734;2023-04-03T17:46:37;2.90;;;1.55;;
16346;SDS011;8283;48.504;13.734;2023-04-03T17:49:22;4.45;;;2.05;;
16346;SDS011;8283;48.504;13.734;2023-04-03T17:52:06;1.92;;;1.52;;
16346;SDS011;8283;48.504;13.734;2023-04-03T17:54:51;2.03;;;1.75;;
16346;SDS011;8283;48.504;13.734;2023-04-03T17:57:35;3.58;;;2.03;;
16346;SDS011;8283;48.504;13.734;2023-04-03T18:00:19;2.83;;;1.70;;
16346;SDS011;8283;48.504;13.734;2023-04-03T18:03:04;2.70;;;1.77;;
16346;SDS011;8283;48.504;13.734;2023-04-03T18:05:49;3.85;;;2.22;;
16346;SDS011;8283;48.504;13.734;2023-04-03T18:08:35;4.00;;;1.40;;
16346;SDS011;8283;48.504;13.734;2023-04-03T18:11:25;2.30;;;1.63;;
16346;SDS011;8283;48.504;13.734;2023-04-03T18:14:11;1.40;;;1.25;;
16346;SDS011;8283;48.504;13.734;2023-04-03T18:16:57;3.22;;;1.50;;